sensor_id;sensor_type;location;lat;lon;timestamp;P1;durP1;ratioP1;P2;durP2;ratioP2
69795;SDS011;57073;45.650;9.612;2022-11-20T00:07:45;8.67;;;3.97;;
69795;SDS011;57073;45.650;9.612;2022-11-20T00:17:45;7.03;;;3.65;;
69795;SDS011;57073;45.650;9.612;2022-11-20T00:27:46;8.70;;;4.00;;
69795;SDS011;57073;45.650;9.612;2022-11-20T00:37:46;6.60;;;3.70;;
69795;SDS011;57073;45.650;9.612;2022-11-20T00:47:47;8.30;;;3.95;;
69795;SDS011;57073;45.650;9.612;2022-11-20T00:57:47;7.75;;;4.15;;
69795;SDS011;57073;45.650;9.612;2022-11-20T01:07:47;6.10;;;3.20;;
69795;SDS011;57073;45.650;9.612;2022-11-20T01:17:48;7.47;;;3.55;;
69795;SDS011;57073;45.650;9.612;2022-11-20T01:27:48;7.25;;;3.30;;
69795;SDS011;57073;45.650;9.612;2022-11-20T01:37:49;8.57;;;3.13;;
69795;SDS011;57073;45.650;9.612;2022-11-20T01:47:50;5.95;;;2.97;;
69795;SDS011;57073;45.650;9.612;2022-11-20T01:57:50;7.33;;;3.50;;
69795;SDS011;57073;45.650;9.612;2022-11-20T02:07:51;4.97;;;2.80;;
69795;SDS011;57073;45.650;9.612;2022-11-20T02:17:54;5.82;;;2.47;;
69795;SDS011;57073;45.650;9.612;2022-11-20T02:27:54;6.27;;;2.83;;
69795;SDS011;57073;45.650;9.612;2022-11-20T02:37:56;5.20;;;2.28;;
69795;SDS011;57073;45.650;9.612;2022-11-20T02:47:59;5.63;;;2.47;;
69795;SDS011;57073;45.650;9.612;2022-11-20T02:58:01;5.23;;;2.30;;
69795;SDS011;57073;45.650;9.612;2022-11-20T03:08:01;5.22;;;2.42;;
69795;SDS011;57073;45.650;9.612;2022-11-20T03:18:02;4.22;;;2.08;;
69795;SDS011;57073;45.650;9.612;2022-11-20T03:28:03;6.03;;;3.00;;
69795;SDS011;57073;45.650;9.612;2022-11-20T03:38:04;5.78;;;3.00;;
69795;SDS011;57073;45.650;9.612;2022-11-20T03:48:04;6.23;;;2.87;;
69795;SDS011;57073;45.650;9.612;2022-11-20T03:58:05;6.45;;;2.60;;
69795;SDS011;57073;45.650;9.612;2022-11-20T04:08:05;4.32;;;2.30;;
69795;SDS011;57073;45.650;9.612;2022-11-20T04:18:05;3.33;;;1.77;;
69795;SDS011;57073;45.650;9.612;2022-11-20T04:28:06;3.93;;;1.80;;
69795;SDS011;57073;45.650;9.612;2022-11-20T04:38:06;4.63;;;2.17;;
69795;SDS011;57073;45.650;9.612;2022-11-20T04:48:06;5.07;;;2.42;;
69795;SDS011;57073;45.650;9.612;2022-11-20T04:58:07;3.47;;;1.92;;
69795;SDS011;57073;45.650;9.612;2022-11-20T05:08:07;8.37;;;2.40;;
69795;SDS011;57073;45.650;9.612;2022-11-20T05:18:07;3.13;;;1.90;;
69795;SDS011;57073;45.650;9.612;2022-11-20T05:28:08;4.00;;;1.52;;
69795;SDS011;57073;45.650;9.612;2022-11-20T05:38:08;3.67;;;1.70;;
69795;SDS011;57073;45.650;9.612;2022-11-20T05:48:09;4.25;;;1.48;;
69795;SDS011;57073;45.650;9.612;2022-11-20T05:58:09;2.88;;;1.45;;
69795;SDS011;57073;45.650;9.612;2022-11-20T06:08:09;2.75;;;1.15;;
69795;SDS011;57073;45.650;9.612;2022-11-20T06:18:10;1.80;;;0.67;;
69795;SDS011;57073;45.650;9.612;2022-11-20T06:28:10;2.28;;;0.70;;
69795;SDS011;57073;45.650;9.612;2022-11-20T06:38:10;1.95;;;0.70;;
69795;SDS011;57073;45.650;9.612;2022-11-20T06:48:11;2.72;;;1.20;;
69795;SDS011;57073;45.650;9.612;2022-11-20T06:58:12;3.63;;;1.17;;
69795;SDS011;57073;45.650;9.612;2022-11-20T07:08:14;2.47;;;1.10;;
69795;SDS011;57073;45.650;9.612;2022-11-20T07:18:14;3.00;;;1.30;;
69795;SDS011;57073;45.650;9.612;2022-11-20T07:28:14;4.60;;;1.43;;
69795;SDS011;57073;45.650;9.612;2022-11-20T07:38:15;4.72;;;2.20;;
69795;SDS011;57073;45.650;9.612;2022-11-20T07:48:15;2.78;;;1.50;;
69795;SDS011;57073;45.650;9.612;2022-11-20T07:58:16;2.70;;;1.20;;
69795;SDS011;57073;45.650;9.612;2022-11-20T08:08:16;2.13;;;1.00;;
69795;SDS011;57073;45.650;9.612;2022-11-20T08:18:17;5.10;;;1.43;;
69795;SDS011;57073;45.650;9.612;2022-11-20T08:28:17;3.05;;;1.10;;
69795;SDS011;57073;45.650;9.612;2022-11-20T08:38:18;2.63;;;1.10;;
69795;SDS011;57073;45.650;9.612;2022-11-20T08:48:18;1.60;;;0.98;;
69795;SDS011;57073;45.650;9.612;2022-11-20T08:58:19;4.50;;;1.00;;
69795;SDS011;57073;45.650;9.612;2022-11-20T09:08:19;2.43;;;1.20;;
69795;SDS011;57073;45.650;9.612;2022-11-20T09:18:19;2.83;;;1.40;;
69795;SDS011;57073;45.650;9.612;2022-11-20T09:28:21;3.80;;;1.70;;
69795;SDS011;57073;45.650;9.612;2022-11-20T09:38:21;5.17;;;1.80;;
69795;SDS011;57073;45.650;9.612;2022-11-20T09:48:29;3.87;;;1.90;;
69795;SDS011;57073;45.650;9.612;2022-11-20T09:58:35;3.55;;;1.95;;
69795;SDS011;57073;45.650;9.612;2022-11-20T10:08:44;5.93;;;2.40;;
69795;SDS011;57073;45.650;9.612;2022-11-20T10:29:17;6.90;;;2.75;;
69795;SDS011;57073;45.650;9.612;2022-11-20T10:39:24;6.00;;;2.50;;
69795;SDS011;57073;45.650;9.612;2022-11-20T10:49:32;3.67;;;1.73;;
69795;SDS011;57073;45.650;9.612;2022-11-20T11:09:55;5.05;;;1.80;;
69795;SDS011;57073;45.650;9.612;2022-11-20T11:30:11;4.27;;;2.27;;
69795;SDS011;57073;45.650;9.612;2022-11-20T11:40:15;3.38;;;1.90;;
69795;SDS011;57073;45.650;9.612;2022-11-20T11:50:24;7.87;;;2.20;;
69795;SDS011;57073;45.650;9.612;2022-11-20T12:00:26;4.67;;;1.83;;
69795;SDS011;57073;45.650;9.612;2022-11-20T12:10:34;2.67;;;1.40;;
69795;SDS011;57073;45.650;9.612;2022-11-20T12:20:40;3.10;;;1.80;;
69795;SDS011;57073;45.650;9.612;2022-11-20T12:30:48;3.13;;;1.42;;
69795;SDS011;57073;45.650;9.612;2022-11-20T13:01:25;5.83;;;2.87;;
69795;SDS011;57073;45.650;9.612;2022-11-20T13:12:00;6.15;;;2.70;;
69795;SDS011;57073;45.650;9.612;2022-11-20T13:22:24;5.10;;;2.50;;
69795;SDS011;57073;45.650;9.612;2022-11-20T13:32:27;5.10;;;2.60;;
69795;SDS011;57073;45.650;9.612;2022-11-20T13:42:32;6.22;;;2.95;;
69795;SDS011;57073;45.650;9.612;2022-11-20T13:52:39;5.70;;;3.60;;
69795;SDS011;57073;45.650;9.612;2022-11-20T14:12:58;6.77;;;4.60;;
69795;SDS011;57073;45.650;9.612;2022-11-20T14:23:10;8.25;;;5.00;;
69795;SDS011;57073;45.650;9.612;2022-11-20T14:33:11;11.50;;;5.93;;
69795;SDS011;57073;45.650;9.612;2022-11-20T14:43:20;11.23;;;5.87;;
69795;SDS011;57073;45.650;9.612;2022-11-20T14:53:25;10.40;;;5.68;;
69795;SDS011;57073;45.650;9.612;2022-11-20T15:03:33;9.27;;;5.63;;
69795;SDS011;57073;45.650;9.612;2022-11-20T15:13:38;9.83;;;6.10;;
69795;SDS011;57073;45.650;9.612;2022-11-20T15:23:39;13.70;;;7.70;;
69795;SDS011;57073;45.650;9.612;2022-11-20T15:33:39;12.80;;;7.15;;
69795;SDS011;57073;45.650;9.612;2022-11-20T15:43:39;12.35;;;7.05;;
69795;SDS011;57073;45.650;9.612;2022-11-20T15:53:40;13.10;;;7.47;;
69795;SDS011;57073;45.650;9.612;2022-11-20T16:03:41;16.02;;;8.30;;
69795;SDS011;57073;45.650;9.612;2022-11-20T16:13:42;16.93;;;8.57;;
69795;SDS011;57073;45.650;9.612;2022-11-20T16:24:02;20.63;;;11.00;;
69795;SDS011;57073;45.650;9.612;2022-11-20T16:34:05;22.47;;;12.63;;
69795;SDS011;57073;45.650;9.612;2022-11-20T16:44:08;25.10;;;13.47;;
69795;SDS011;57073;45.650;9.612;2022-11-20T16:54:09;26.80;;;14.63;;
69795;SDS011;57073;45.650;9.612;2022-11-20T17:04:10;29.60;;;18.17;;
69795;SDS011;57073;45.650;9.612;2022-11-20T17:14:10;23.40;;;13.90;;
69795;SDS011;57073;45.650;9.612;2022-11-20T17:24:11;20.13;;;11.60;;
69795;SDS011;57073;45.650;9.612;2022-11-20T17:34:13;24.77;;;12.68;;
69795;SDS011;57073;45.650;9.612;2022-11-20T17:44:14;21.03;;;12.47;;
69795;SDS011;57073;45.650;9.612;2022-11-20T17:54:15;19.63;;;11.50;;
69795;SDS011;57073;45.650;9.612;2022-11-20T18:04:15;24.50;;;14.18;;
69795;SDS011;57073;45.650;9.612;2022-11-20T18:14:16;30.90;;;15.07;;
69795;SDS011;57073;45.650;9.612;2022-11-20T18:24:33;25.20;;;14.80;;
69795;SDS011;57073;45.650;9.612;2022-11-20T18:34:38;24.17;;;14.25;;
69795;SDS011;57073;45.650;9.612;2022-11-20T18:44:38;29.17;;;16.80;;
69795;SDS011;57073;45.650;9.612;2022-11-20T18:54:51;30.15;;;17.10;;
69795;SDS011;57073;45.650;9.612;2022-11-20T19:04:51;29.80;;;17.00;;
69795;SDS011;57073;45.650;9.612;2022-11-20T19:14:52;28.88;;;15.88;;
69795;SDS011;57073;45.650;9.612;2022-11-20T19:24:52;23.00;;;13.87;;
69795;SDS011;57073;45.650;9.612;2022-11-20T19:34:52;23.70;;;13.70;;
69795;SDS011;57073;45.650;9.612;2022-11-20T19:44:53;22.03;;;12.27;;
69795;SDS011;57073;45.650;9.612;2022-11-20T19:54:53;19.30;;;10.20;;
69795;SDS011;57073;45.650;9.612;2022-11-20T20:04:54;23.35;;;12.30;;
69795;SDS011;57073;45.650;9.612;2022-11-20T20:14:54;21.35;;;13.30;;
69795;SDS011;57073;45.650;9.612;2022-11-20T20:24:54;21.83;;;11.50;;
69795;SDS011;57073;45.650;9.612;2022-11-20T20:34:55;18.42;;;10.90;;
69795;SDS011;57073;45.650;9.612;2022-11-20T20:44:55;18.08;;;10.60;;
69795;SDS011;57073;45.650;9.612;2022-11-20T20:55:09;17.20;;;10.07;;
69795;SDS011;57073;45.650;9.612;2022-11-20T21:05:10;18.40;;;11.10;;
69795;SDS011;57073;45.650;9.612;2022-11-20T21:15:10;20.50;;;10.77;;
69795;SDS011;57073;45.650;9.612;2022-11-20T21:25:11;13.98;;;6.88;;
69795;SDS011;57073;45.650;9.612;2022-11-20T21:35:11;11.35;;;6.20;;
69795;SDS011;57073;45.650;9.612;2022-11-20T21:45:11;8.63;;;4.77;;
69795;SDS011;57073;45.650;9.612;2022-11-20T21:55:12;9.98;;;4.78;;
69795;SDS011;57073;45.650;9.612;2022-11-20T22:05:12;9.10;;;5.28;;
69795;SDS011;57073;45.650;9.612;2022-11-20T22:15:12;9.50;;;5.30;;
69795;SDS011;57073;45.650;9.612;2022-11-20T22:25:13;11.45;;;6.20;;
69795;SDS011;57073;45.650;9.612;2022-11-20T22:35:13;10.50;;;5.57;;
69795;SDS011;57073;45.650;9.612;2022-11-20T22:45:14;9.57;;;5.57;;
69795;SDS011;57073;45.650;9.612;2022-11-20T22:55:14;11.20;;;5.70;;
69795;SDS011;57073;45.650;9.612;2022-11-20T23:05:15;17.38;;;7.93;;
69795;SDS011;57073;45.650;9.612;2022-11-20T23:15:15;13.27;;;7.15;;
69795;SDS011;57073;45.650;9.612;2022-11-20T23:25:15;12.57;;;7.07;;
69795;SDS011;57073;45.650;9.612;2022-11-20T23:35:16;13.30;;;7.40;;
69795;SDS011;57073;45.650;9.612;2022-11-20T23:45:16;15.82;;;6.65;;
69795;SDS011;57073;45.650;9.612;2022-11-20T23:55:16;13.37;;;6.53;;
